Weather at Chatham Islands / Tuuta Airport

Public forecast

Using degrees Celsius for public forecast. Weather courtesy of forecast.io.

Closest aviation weather report (METAR) to Chatham Islands / Tuuta Airport

Closest report is Wellington International Airport, 413.6 nm (765.9 km) WNW. Retrieved 2022/06/29 09:30 UTC (59 seconds ago):

NZWN 290930Z AUTO 03005KT 9999 NCD 06/06 Q1010 NOSIG

Closest aviation forecast (TAF) to Chatham Islands / Tuuta Airport

Closest forecast is Wellington International Airport, 413.6 nm (765.9 km) WNW. Retrieved 2022/06/29 06:12 UTC (3 hours ago):

TAF NZWN 290509Z 2906/3006 36008KT 9999 FEW030 BECMG 2919/2921 36018KT